Terminal Aerodrome Forecast
Issued by NWS

Home | Current Version | Previous Version | Text Only | Print | Product List | Glossary On
Versions: 1 2 3 4 5 6 7 8 9 10 11 12 13 14 15 16 17 18 19 20 21
000
FTUS43 KICT 232337
TAFHUT
TAF
KHUT 232337Z 2400/2424 14013KT P6SM BKN028
     FM240500 14013KT 4SM TSRA OVC013CB
     FM240800 15009KT 2SM -DZ OVC004=

USA.gov is the U.S. government's official web portal to all federal, state and local government web resources and services.